createdAt,value
2022-11-21T00:01:17.501Z,1.85
2022-11-21T00:03:46.611Z,0.57
2022-11-21T00:06:16.122Z,1.48
2022-11-21T00:08:46.772Z,0.68
2022-11-21T00:11:16.094Z,0.45
2022-11-21T00:13:45.418Z,1.30
2022-11-21T00:16:16.668Z,1.20
2022-11-21T00:18:45.711Z,2.78
2022-11-21T00:21:16.552Z,2.20
2022-11-21T00:23:48.233Z,4.00
2022-11-21T00:26:17.947Z,1.65
2022-11-21T00:28:47.007Z,2.95
2022-11-21T00:31:25.251Z,2.45
2022-11-21T00:33:54.292Z,2.58
2022-11-21T00:36:23.164Z,0.55
2022-11-21T00:38:53.395Z,2.33
2022-11-21T00:41:22.285Z,0.80
2022-11-21T00:43:51.243Z,0.00
2022-11-21T00:46:20.084Z,0.10
2022-11-21T00:48:48.968Z,0.10
2022-11-21T00:51:18.037Z,0.10
2022-11-21T00:53:46.923Z,0.10
2022-11-21T00:56:17.195Z,0.10
2022-11-21T00:58:46.479Z,0.43
2022-11-21T01:01:17.052Z,0.45
2022-11-21T01:03:46.988Z,0.45
2022-11-21T01:06:17.130Z,0.68
2022-11-21T01:08:46.246Z,0.57
2022-11-21T01:11:19.976Z,1.98
2022-11-21T01:13:49.902Z,3.50
2022-11-21T01:16:21.166Z,2.63
2022-11-21T01:18:50.080Z,2.13
2022-11-21T01:21:23.633Z,5.30
2022-11-21T01:23:52.832Z,4.47
2022-11-21T01:26:25.723Z,2.72
2022-11-21T01:28:55.012Z,4.68
2022-11-21T01:31:26.165Z,1.92
2022-11-21T01:33:55.833Z,2.88
2022-11-21T01:36:27.703Z,2.60
2022-11-21T01:38:58.966Z,1.38
2022-11-21T01:41:33.620Z,1.13
2022-11-21T01:44:03.303Z,1.67
2022-11-21T01:46:32.158Z,1.80
2022-11-21T01:49:05.767Z,0.65
2022-11-21T01:51:38.667Z,0.50
2022-11-21T01:54:11.625Z,0.88
2022-11-21T01:56:47.951Z,0.30
2022-11-21T01:59:22.828Z,0.22
2022-11-21T02:01:55.092Z,0.22
2022-11-21T02:04:27.797Z,0.30
2022-11-21T02:06:56.847Z,0.20
2022-11-21T02:09:27.523Z,0.60
2022-11-21T02:12:02.001Z,0.10
2022-11-21T02:14:31.363Z,0.10
2022-11-21T02:17:04.835Z,0.20
2022-11-21T02:19:43.868Z,0.25
2022-11-21T02:22:21.438Z,0.60
2022-11-21T02:25:08.510Z,0.35
2022-11-21T02:27:37.544Z,0.80
2022-11-21T02:30:10.023Z,0.30
2022-11-21T02:32:41.450Z,0.47
2022-11-21T02:35:10.589Z,0.40
2022-11-21T02:37:39.572Z,0.40
2022-11-21T02:40:13.957Z,0.98
2022-11-21T02:42:52.563Z,0.70
2022-11-21T02:45:26.408Z,1.63
2022-11-21T02:48:00.853Z,6.22
2022-11-21T02:50:34.386Z,3.53
2022-11-21T02:53:06.003Z,1.83
2022-11-21T02:55:36.785Z,0.80
2022-11-21T02:58:06.584Z,0.52
2022-11-21T03:00:36.893Z,0.30
2022-11-21T03:03:05.831Z,0.50
2022-11-21T03:05:34.758Z,3.95
2022-11-21T03:08:04.190Z,1.00
2022-11-21T03:10:33.658Z,0.55
2022-11-21T03:13:03.942Z,0.63
2022-11-21T03:15:34.587Z,0.55
2022-11-21T03:18:04.473Z,0.30
2022-11-21T03:20:34.724Z,0.80
2022-11-21T03:23:04.240Z,1.15
2022-11-21T03:25:33.114Z,0.77
2022-11-21T03:28:03.351Z,0.60
2022-11-21T03:30:32.820Z,0.95
2022-11-21T03:33:02.025Z,0.82
2022-11-21T03:35:30.860Z,1.23
2022-11-21T03:37:59.736Z,1.67
2022-11-21T03:40:28.583Z,3.20
2022-11-21T03:42:57.500Z,1.65
2022-11-21T03:45:27.758Z,4.95
2022-11-21T03:47:56.614Z,4.07
2022-11-21T03:50:25.508Z,3.38
2022-11-21T03:52:54.383Z,2.22
2022-11-21T03:55:23.312Z,3.00
2022-11-21T03:57:52.203Z,3.35
2022-11-21T04:00:21.253Z,3.05
2022-11-21T04:02:51.528Z,8.82
2022-11-21T04:05:20.598Z,5.55
2022-11-21T04:07:49.516Z,4.43
2022-11-21T04:10:19.294Z,1.95
2022-11-21T04:12:48.325Z,2.25
2022-11-21T04:15:17.290Z,3.25
2022-11-21T04:17:46.202Z,3.85
2022-11-21T04:20:17.493Z,6.20
2022-11-21T04:22:46.402Z,4.22
2022-11-21T04:25:15.371Z,4.03
2022-11-21T04:27:44.254Z,4.68
2022-11-21T04:30:14.101Z,5.32
2022-11-21T04:32:44.180Z,6.22
2022-11-21T04:35:13.028Z,5.85
2022-11-21T04:37:43.709Z,4.55
2022-11-21T04:40:14.544Z,5.40
2022-11-21T04:42:43.647Z,5.10
2022-11-21T04:45:13.747Z,9.63
2022-11-21T04:47:44.112Z,6.30
2022-11-21T04:50:15.133Z,6.55
2022-11-21T04:52:51.046Z,5.35
2022-11-21T04:55:20.366Z,4.55
2022-11-21T04:57:49.442Z,4.00
2022-11-21T05:00:23.938Z,3.33
2022-11-21T05:02:53.486Z,3.42
2022-11-21T05:05:26.085Z,3.30
2022-11-21T05:07:56.365Z,9.40
2022-11-21T05:10:25.300Z,2.80
2022-11-21T05:13:18.554Z,3.90
2022-11-21T05:15:51.508Z,3.85
2022-11-21T05:18:20.878Z,7.85
2022-11-21T05:20:49.719Z,7.57
2022-11-21T05:23:20.006Z,6.65
2022-11-21T05:25:48.974Z,7.88
2022-11-21T05:28:17.957Z,7.82
2022-11-21T05:30:46.857Z,7.82
2022-11-21T05:33:15.775Z,8.07
2022-11-21T05:35:44.972Z,6.55
2022-11-21T05:38:13.886Z,7.85
2022-11-21T05:40:44.203Z,17.92
2022-11-21T05:43:30.823Z,16.20
2022-11-21T05:45:59.772Z,18.60
2022-11-21T05:48:28.698Z,17.40
2022-11-21T05:50:57.596Z,21.42
2022-11-21T05:53:26.527Z,17.15
2022-11-21T05:55:56.903Z,15.00
2022-11-21T05:58:25.746Z,13.10
2022-11-21T06:00:59.985Z,9.73
2022-11-21T06:03:32.530Z,15.20
2022-11-21T06:06:03.242Z,10.15
2022-11-21T06:08:34.499Z,10.20
2022-11-21T06:11:06.981Z,10.00
2022-11-21T06:13:36.683Z,12.75
2022-11-21T06:16:07.090Z,9.88
2022-11-21T06:18:37.984Z,7.30
2022-11-21T06:21:08.688Z,6.03
2022-11-21T06:23:38.017Z,9.07
2022-11-21T06:26:10.357Z,9.65
2022-11-21T06:28:40.782Z,8.00
2022-11-21T06:31:11.203Z,7.88
2022-11-21T06:33:41.097Z,8.35
2022-11-21T06:36:12.228Z,11.52
2022-11-21T06:38:41.455Z,8.30
2022-11-21T06:41:14.487Z,9.02
2022-11-21T06:43:43.555Z,7.85
2022-11-21T06:46:13.252Z,9.85
2022-11-21T06:48:42.548Z,9.02
2022-11-21T06:51:17.594Z,6.30
2022-11-21T06:53:46.921Z,6.82
2022-11-21T06:56:17.492Z,3.90
2022-11-21T06:58:46.373Z,4.38
2022-11-21T07:01:15.621Z,3.28
2022-11-21T07:03:44.527Z,3.60
2022-11-21T07:06:13.706Z,2.72
2022-11-21T07:08:42.546Z,2.22
2022-11-21T07:11:29.045Z,2.47
2022-11-21T07:13:59.296Z,3.25
2022-11-21T07:16:31.862Z,1.88
2022-11-21T07:19:01.152Z,1.73
2022-11-21T07:21:30.025Z,1.63
2022-11-21T07:23:58.940Z,1.67
2022-11-21T07:26:27.845Z,1.00
2022-11-21T07:28:56.772Z,1.58
2022-11-21T07:31:26.974Z,0.93
2022-11-21T07:33:55.855Z,2.25
2022-11-21T07:36:24.852Z,2.75
2022-11-21T07:38:53.724Z,1.65
2022-11-21T07:41:22.577Z,1.30
2022-11-21T07:43:51.423Z,3.92
2022-11-21T07:46:20.269Z,1.40
2022-11-21T07:48:50.565Z,1.35
2022-11-21T07:51:19.433Z,0.77
2022-11-21T07:53:48.567Z,1.27
2022-11-21T07:56:17.970Z,1.35
2022-11-21T07:58:46.800Z,0.95
2022-11-21T08:01:16.139Z,0.75
2022-11-21T08:03:45.005Z,1.23
2022-11-21T08:06:15.306Z,1.10
2022-11-21T08:08:44.808Z,2.70
2022-11-21T08:11:13.710Z,1.92
2022-11-21T08:13:42.537Z,1.92
2022-11-21T08:16:11.424Z,0.95
2022-11-21T08:18:40.347Z,2.13
2022-11-21T08:21:09.212Z,1.13
2022-11-21T08:23:39.454Z,1.52
2022-11-21T08:26:11.311Z,1.10
2022-11-21T08:28:40.287Z,1.38
2022-11-21T08:31:09.246Z,1.92
2022-11-21T08:33:38.151Z,0.88
2022-11-21T08:36:07.890Z,1.05
2022-11-21T08:38:36.801Z,0.63
2022-11-21T08:41:24.869Z,1.20
2022-11-21T08:43:53.766Z,1.27
2022-11-21T08:46:27.286Z,0.73
2022-11-21T08:48:56.258Z,1.02
2022-11-21T08:51:25.220Z,1.00
2022-11-21T08:53:54.069Z,1.00
2022-11-21T08:56:24.680Z,1.05
2022-11-21T08:58:53.554Z,1.10
2022-11-21T09:01:22.496Z,1.00
2022-11-21T09:03:51.835Z,1.20
2022-11-21T09:06:20.744Z,1.30
2022-11-21T09:08:49.633Z,1.13
2022-11-21T09:11:18.505Z,1.13
2022-11-21T09:14:09.236Z,1.67
2022-11-21T09:17:00.676Z,1.67
2022-11-21T09:19:31.205Z,1.50
2022-11-21T09:22:00.595Z,1.15
2022-11-21T09:24:29.776Z,1.65
2022-11-21T09:26:58.608Z,1.38
2022-11-21T09:29:29.007Z,1.73
2022-11-21T09:31:58.118Z,1.42
2022-11-21T09:34:27.449Z,1.48
2022-11-21T09:36:56.753Z,1.08
2022-11-21T09:39:25.902Z,1.83
2022-11-21T09:42:08.583Z,0.82
2022-11-21T09:44:53.307Z,1.52
2022-11-21T09:47:26.234Z,1.10
2022-11-21T09:50:01.993Z,1.27
2022-11-21T09:52:38.491Z,1.00
2022-11-21T09:55:18.388Z,0.93
2022-11-21T09:57:50.201Z,0.98
2022-11-21T10:00:24.719Z,0.90
2022-11-21T10:02:53.906Z,0.70
2022-11-21T10:05:31.837Z,1.08
2022-11-21T10:08:07.247Z,0.70
2022-11-21T10:10:52.206Z,0.47
2022-11-21T10:13:33.225Z,0.67
2022-11-21T10:16:11.212Z,0.70
2022-11-21T10:19:05.693Z,0.50
2022-11-21T10:22:11.060Z,0.80
2022-11-21T10:24:51.488Z,1.88
2022-11-21T10:27:28.249Z,0.73
2022-11-21T10:30:03.529Z,1.15
2022-11-21T10:32:39.806Z,0.73
2022-11-21T10:35:16.681Z,0.30
2022-11-21T10:37:49.869Z,0.47
2022-11-21T10:40:36.925Z,0.40
2022-11-21T10:43:28.825Z,0.40
2022-11-21T10:45:57.815Z,0.60
2022-11-21T10:48:28.114Z,0.60
2022-11-21T10:51:19.272Z,0.50
2022-11-21T10:54:07.971Z,0.60
2022-11-21T10:56:38.251Z,0.40
2022-11-21T10:59:20.392Z,0.22
2022-11-21T11:01:57.241Z,0.50
2022-11-21T11:04:30.276Z,0.80
2022-11-21T11:07:22.517Z,0.60
2022-11-21T11:09:53.592Z,0.30
2022-11-21T11:12:46.881Z,0.20
2022-11-21T11:15:24.950Z,0.95
2022-11-21T11:17:57.547Z,0.22
2022-11-21T11:20:38.423Z,0.28
2022-11-21T11:23:26.980Z,0.30
2022-11-21T11:25:57.809Z,0.40
2022-11-21T11:28:28.500Z,0.38
2022-11-21T11:30:59.062Z,0.30
2022-11-21T11:33:33.234Z,0.75
2022-11-21T11:36:13.725Z,0.20
2022-11-21T11:38:48.253Z,0.30
2022-11-21T11:41:59.036Z,0.40
2022-11-21T11:44:55.048Z,0.30
2022-11-21T11:50:15.034Z,0.30
2022-11-21T11:52:56.933Z,0.43
2022-11-21T11:55:30.717Z,0.40
2022-11-21T11:58:03.720Z,0.77
2022-11-21T12:00:41.643Z,0.38
2022-11-21T12:03:16.596Z,0.88
2022-11-21T12:05:57.620Z,0.40
2022-11-21T12:08:41.718Z,0.35
2022-11-21T12:11:37.825Z,0.40
2022-11-21T12:14:39.424Z,0.43
2022-11-21T12:17:11.025Z,0.80
2022-11-21T12:19:41.014Z,0.50
2022-11-21T12:22:12.084Z,0.47
2022-11-21T12:24:43.351Z,0.50
2022-11-21T12:27:25.432Z,0.55
2022-11-21T12:30:07.476Z,0.75
2022-11-21T12:32:55.745Z,0.40
2022-11-21T12:35:43.262Z,0.60
2022-11-21T12:38:26.621Z,0.65
2022-11-21T12:41:27.966Z,0.30
2022-11-21T12:44:08.452Z,0.50
2022-11-21T12:46:47.099Z,9.85
2022-11-21T12:49:42.793Z,1.58
2022-11-21T12:52:47.238Z,0.50
2022-11-21T12:55:25.197Z,0.52
2022-11-21T12:58:10.751Z,0.50
2022-11-21T13:03:55.967Z,0.68
2022-11-21T13:06:27.841Z,0.55
2022-11-21T13:08:59.887Z,0.50
2022-11-21T13:12:01.081Z,1.10
2022-11-21T13:14:39.340Z,0.75
2022-11-21T13:17:22.056Z,0.88
2022-11-21T13:19:55.334Z,1.13
2022-11-21T13:22:49.784Z,0.65
2022-11-21T13:25:41.025Z,2.70
2022-11-21T13:28:35.791Z,2.38
2022-11-21T13:31:30.674Z,1.20
2022-11-21T13:34:00.389Z,0.60
2022-11-21T13:36:38.953Z,0.38
2022-11-21T13:39:36.352Z,0.85
2022-11-21T13:42:30.127Z,3.38
2022-11-21T13:44:59.619Z,0.70
2022-11-21T13:48:06.454Z,1.20
2022-11-21T13:50:52.279Z,0.93
2022-11-21T13:54:02.316Z,0.85
2022-11-21T13:56:38.271Z,1.15
2022-11-21T13:59:39.624Z,1.20
2022-11-21T14:02:32.222Z,1.20
2022-11-21T14:05:46.105Z,1.70
2022-11-21T14:08:20.413Z,0.82
2022-11-21T14:10:51.566Z,1.30
2022-11-21T14:13:26.109Z,1.23
2022-11-21T14:16:14.782Z,0.90
2022-11-21T14:18:47.251Z,1.02
2022-11-21T14:21:26.645Z,1.17
2022-11-21T14:23:58.031Z,1.00
2022-11-21T14:26:27.445Z,1.65
2022-11-21T14:29:22.964Z,2.17
2022-11-21T14:31:52.000Z,0.88
2022-11-21T14:34:28.607Z,0.85
2022-11-21T14:37:01.083Z,0.60
2022-11-21T14:39:43.681Z,1.20
2022-11-21T14:42:15.970Z,0.70
2022-11-21T14:44:46.216Z,1.27
2022-11-21T14:47:23.557Z,0.85
2022-11-21T14:49:58.691Z,0.50
2022-11-21T14:52:32.276Z,0.90
2022-11-21T14:57:53.207Z,0.50
2022-11-21T15:03:21.272Z,1.10
2022-11-21T15:06:08.147Z,0.73
2022-11-21T15:09:18.418Z,1.25
2022-11-21T15:11:36.130Z,0.50
2022-11-21T15:14:15.907Z,0.40
2022-11-21T15:16:49.094Z,0.60
2022-11-21T15:19:23.568Z,1.55
2022-11-21T15:21:54.227Z,2.40
2022-11-21T15:24:32.353Z,1.45
2022-11-21T15:27:01.345Z,0.98
2022-11-21T15:29:32.246Z,1.02
2022-11-21T15:32:15.810Z,0.60
2022-11-21T15:34:45.346Z,1.02
2022-11-21T15:37:17.341Z,1.75
2022-11-21T15:39:48.405Z,2.03
2022-11-21T15:42:37.020Z,1.30
2022-11-21T15:45:23.954Z,1.02
2022-11-21T15:47:55.626Z,1.50
2022-11-21T15:50:26.383Z,1.30
2022-11-21T15:52:55.395Z,0.98
2022-11-21T15:55:26.973Z,1.20
2022-11-21T15:57:55.921Z,1.23
2022-11-21T16:00:24.842Z,1.20
2022-11-21T16:02:55.123Z,1.33
2022-11-21T16:05:24.302Z,1.17
2022-11-21T16:07:53.258Z,1.45
2022-11-21T16:10:27.592Z,3.80
2022-11-21T16:12:57.294Z,1.80
2022-11-21T16:15:26.254Z,2.10
2022-11-21T16:17:56.567Z,1.90
2022-11-21T16:20:25.424Z,1.40
2022-11-21T16:22:54.314Z,1.38
2022-11-21T16:25:23.216Z,1.23
2022-11-21T16:27:52.113Z,1.25
2022-11-21T16:30:21.074Z,1.17
2022-11-21T16:32:51.303Z,1.20
2022-11-21T16:35:21.592Z,1.35
2022-11-21T16:37:52.202Z,1.48
2022-11-21T16:40:21.061Z,1.70
2022-11-21T16:42:49.914Z,1.50
2022-11-21T16:45:18.955Z,0.85
2022-11-21T16:47:49.124Z,1.42
2022-11-21T16:50:18.819Z,1.13
2022-11-21T16:52:49.724Z,1.20
2022-11-21T16:55:18.637Z,1.17
2022-11-21T16:57:47.763Z,0.90
2022-11-21T17:00:18.120Z,1.55
2022-11-21T17:02:47.129Z,1.70
2022-11-21T17:05:16.128Z,1.27
2022-11-21T17:07:45.033Z,1.00
2022-11-21T17:10:15.921Z,3.15
2022-11-21T17:12:45.246Z,5.65
2022-11-21T17:15:16.396Z,6.05
2022-11-21T17:17:45.264Z,6.65
2022-11-21T17:20:14.184Z,7.93
2022-11-21T17:22:43.115Z,5.28
2022-11-21T17:25:12.020Z,5.30
2022-11-21T17:27:42.342Z,4.93
2022-11-21T17:30:12.252Z,4.82
2022-11-21T17:32:41.235Z,4.38
2022-11-21T17:35:11.363Z,5.05
2022-11-21T17:37:40.727Z,4.93
2022-11-21T17:40:12.704Z,9.10
2022-11-21T17:42:43.587Z,4.15
2022-11-21T17:45:12.628Z,2.38
2022-11-21T17:47:42.290Z,2.42
2022-11-21T17:50:11.458Z,2.60
2022-11-21T17:52:40.390Z,1.75
2022-11-21T17:55:09.283Z,2.58
2022-11-21T17:57:38.151Z,5.18
2022-11-21T18:00:09.968Z,5.03
2022-11-21T18:02:38.943Z,6.20
2022-11-21T18:05:07.943Z,3.80
2022-11-21T18:07:37.824Z,3.63
2022-11-21T18:10:35.628Z,2.35
2022-11-21T18:12:59.269Z,3.45
2022-11-21T18:15:29.496Z,3.85
2022-11-21T18:17:58.418Z,3.63
2022-11-21T18:20:27.290Z,2.55
2022-11-21T18:22:56.319Z,2.22
2022-11-21T18:25:25.254Z,2.67
2022-11-21T18:27:54.860Z,3.83
2022-11-21T18:30:24.291Z,2.25
2022-11-21T18:32:54.860Z,2.00
2022-11-21T18:35:23.974Z,3.20
2022-11-21T18:37:52.918Z,3.25
2022-11-21T18:40:21.888Z,2.78
2022-11-21T18:42:50.783Z,3.80
2022-11-21T18:45:19.661Z,4.05
2022-11-21T18:47:48.540Z,2.22
2022-11-21T18:50:19.200Z,2.78
2022-11-21T18:52:48.129Z,2.42
2022-11-21T18:55:17.030Z,1.98
2022-11-21T18:57:47.000Z,3.33
2022-11-21T19:00:16.580Z,4.47
2022-11-21T19:02:45.580Z,1.80
2022-11-21T19:05:20.235Z,2.42
2022-11-21T19:10:41.935Z,1.92
2022-11-21T19:13:10.890Z,2.13
2022-11-21T19:15:39.953Z,10.07
2022-11-21T19:18:08.777Z,3.97
2022-11-21T19:20:37.928Z,2.00
2022-11-21T19:23:09.093Z,2.40
2022-11-21T19:25:37.995Z,1.92
2022-11-21T19:28:06.942Z,2.08
2022-11-21T19:30:36.279Z,2.47
2022-11-21T19:33:05.281Z,2.78
2022-11-21T19:35:34.293Z,3.38
2022-11-21T19:38:03.818Z,2.55
2022-11-21T19:40:54.811Z,1.55
2022-11-21T19:43:23.874Z,2.17
2022-11-21T19:45:57.840Z,2.25
2022-11-21T19:48:27.108Z,1.40
2022-11-21T19:50:58.630Z,2.22
2022-11-21T19:53:28.714Z,2.63
2022-11-21T19:55:59.001Z,2.45
2022-11-21T19:58:27.847Z,2.50
2022-11-21T20:01:06.419Z,2.03
2022-11-21T20:03:35.525Z,1.98
2022-11-21T20:06:06.211Z,2.03
2022-11-21T20:08:35.508Z,2.78
2022-11-21T20:11:13.107Z,2.25
2022-11-21T20:13:43.091Z,2.00
2022-11-21T20:16:19.430Z,2.35
2022-11-21T20:18:48.387Z,2.22
2022-11-21T20:21:18.427Z,2.33
2022-11-21T20:23:47.797Z,2.17
2022-11-21T20:26:19.719Z,3.35
2022-11-21T20:28:49.696Z,3.75
2022-11-21T20:31:20.287Z,1.50
2022-11-21T20:33:51.203Z,3.05
2022-11-21T20:36:23.772Z,4.75
2022-11-21T20:38:54.703Z,4.10
2022-11-21T20:41:26.839Z,4.10
2022-11-21T20:44:44.653Z,3.20
2022-11-21T20:46:45.148Z,3.35
2022-11-21T20:49:14.092Z,3.25
2022-11-21T20:53:31.332Z,2.53
2022-11-21T20:54:33.441Z,2.35
2022-11-21T20:57:03.782Z,3.10
2022-11-21T20:59:32.994Z,3.30
2022-11-21T21:02:02.181Z,2.80
2022-11-21T21:04:31.106Z,4.25
2022-11-21T21:07:00.029Z,5.78
2022-11-21T21:09:30.027Z,4.40
2022-11-21T21:11:59.168Z,5.10
2022-11-21T21:14:29.492Z,5.22
2022-11-21T21:16:58.415Z,4.70
2022-11-21T21:19:27.517Z,5.88
2022-11-21T21:21:56.697Z,4.68
2022-11-21T21:24:26.003Z,4.45
2022-11-21T21:26:54.939Z,5.03
2022-11-21T21:29:23.806Z,5.93
2022-11-21T21:31:54.437Z,4.20
2022-11-21T21:34:24.396Z,3.72
2022-11-21T21:36:53.310Z,4.28
2022-11-21T21:39:22.162Z,4.75
2022-11-21T21:41:51.483Z,4.75
2022-11-21T21:44:20.460Z,3.95
2022-11-21T21:46:49.355Z,5.43
2022-11-21T21:49:19.601Z,4.25
2022-11-21T21:51:48.511Z,4.88
2022-11-21T21:54:19.709Z,4.85
2022-11-21T21:56:49.505Z,4.07
2022-11-21T21:59:19.895Z,4.75
2022-11-21T22:01:49.243Z,4.38
2022-11-21T22:04:19.768Z,3.92
2022-11-21T22:06:48.694Z,4.07
2022-11-21T22:09:17.588Z,5.28
2022-11-21T22:11:46.495Z,4.38
2022-11-21T22:14:17.679Z,5.70
2022-11-21T22:16:46.614Z,5.45
2022-11-21T22:19:15.690Z,5.03
2022-11-21T22:21:45.963Z,4.57
2022-11-21T22:24:25.436Z,5.40
2022-11-21T22:26:55.431Z,5.80
2022-11-21T22:29:24.385Z,4.45
2022-11-21T22:31:53.249Z,4.35
2022-11-21T22:34:22.635Z,5.90
2022-11-21T22:36:52.951Z,5.20
2022-11-21T22:39:21.917Z,6.38
2022-11-21T22:41:51.159Z,5.88
2022-11-21T22:44:22.896Z,4.82
2022-11-21T22:46:51.835Z,8.30
2022-11-21T22:49:20.880Z,6.25
2022-11-21T22:51:49.775Z,9.35
2022-11-21T22:54:20.065Z,6.32
2022-11-21T22:56:48.930Z,5.65
2022-11-21T22:59:17.891Z,4.68
2022-11-21T23:01:46.833Z,5.07
2022-11-21T23:04:17.889Z,3.90
2022-11-21T23:06:46.999Z,6.38
2022-11-21T23:09:15.884Z,5.38
2022-11-21T23:11:46.118Z,4.25
2022-11-21T23:14:14.950Z,5.63
2022-11-21T23:16:43.943Z,4.35
2022-11-21T23:19:13.067Z,4.10
2022-11-21T23:21:42.195Z,5.28
2022-11-21T23:24:11.227Z,4.40
2022-11-21T23:26:40.134Z,4.13
2022-11-21T23:29:10.435Z,3.92
2022-11-21T23:31:39.315Z,3.33
2022-11-21T23:34:11.151Z,3.65
2022-11-21T23:36:40.325Z,3.88
2022-11-21T23:39:09.294Z,2.92
2022-11-21T23:41:38.793Z,3.05
2022-11-21T23:44:07.687Z,2.55
2022-11-21T23:46:37.973Z,3.55
2022-11-21T23:49:06.858Z,4.03
2022-11-21T23:51:35.862Z,3.22
2022-11-21T23:54:04.816Z,2.72
2022-11-21T23:56:33.724Z,2.58
2022-11-21T23:59:03.174Z,4.05
